CheckWX is a tool to help pilots better visualize weather data.  It is not intended as a substitute for an official pre-flight weather briefing.

01:01:18 UTC

KGDJ METAR
Granbury Regional Airport
Granbury, Texas, USA
Current

26 mins ago

KGDJ 300035Z AUTO 01005KT 10SM CLR 30/13 A3012 RMK AO2 T02950134
Observed
May-30 @ 00:35 UTC
Wind
  • 010° at 5 KTS
Visibility
Flight Rules
VFR
Cloud Levels
  • Clear skies
Temperature
30°C / 86°F
Dewpoint
13°C / 55°F
Humidity
35%
Altimeter
30.12" Hg
Pressure
1020.02 hPa
Previous

46 mins ago

KGDJ 300015Z AUTO 05008KT 10SM CLR 30/13 A3012 RMK AO2 T03000133
Observed
May-30 @ 00:15 UTC
Wind
  • 050° at 8 KTS
Visibility
Flight Rules
VFR
Cloud Levels
  • Clear skies
Temperature
30°C / 86°F
Dewpoint
13°C / 55°F
Humidity
35%
Altimeter
30.12" Hg
Pressure
1020.02 hPa
Previous

1 hour ago

KGDJ 292355Z AUTO 04009KT 10SM CLR 30/13 A3013 RMK AO2 T03030128 10312 20285
Observed
May-29 @ 23:55 UTC
Wind
  • 040° at 9 KTS
Visibility
Flight Rules
VFR
Cloud Levels
  • Clear skies
Temperature
30°C / 86°F
Dewpoint
13°C / 55°F
Humidity
35%
Altimeter
30.13" Hg
Pressure
1020.32 hPa